createdAt,value
2023-03-25T00:03:43.361Z,9.70
2023-03-25T00:06:12.220Z,9.70
2023-03-25T00:08:38.952Z,9.60
2023-03-25T00:11:06.961Z,9.50
2023-03-25T00:13:34.059Z,9.40
2023-03-25T00:18:44.082Z,9.40
2023-03-25T00:21:11.569Z,9.30
2023-03-25T00:23:39.482Z,9.30
2023-03-25T00:26:06.377Z,9.30
2023-03-25T00:28:35.076Z,9.30
2023-03-25T00:38:56.673Z,9.20
2023-03-25T00:41:28.089Z,9.20
2023-03-25T00:43:56.567Z,9.30
2023-03-25T00:46:27.713Z,9.40
2023-03-25T00:51:53.044Z,9.40
2023-03-25T00:54:34.120Z,9.30
2023-03-25T00:57:01.032Z,9.30
2023-03-25T00:59:28.306Z,9.30
2023-03-25T01:04:27.413Z,9.30
2023-03-25T01:09:28.677Z,9.30
2023-03-25T01:11:55.309Z,9.30
2023-03-25T01:14:24.217Z,9.30
2023-03-25T01:16:52.548Z,9.30
2023-03-25T01:19:19.457Z,9.30
2023-03-25T01:24:31.385Z,9.40
2023-03-25T01:26:58.078Z,9.40
2023-03-25T01:29:24.763Z,9.50
2023-03-25T01:31:51.651Z,9.50
2023-03-25T01:34:18.373Z,9.50
2023-03-25T01:36:50.097Z,9.50
2023-03-25T01:39:18.732Z,9.50
2023-03-25T01:41:50.587Z,9.50
2023-03-25T01:44:20.959Z,9.50
2023-03-25T01:46:49.280Z,9.50
2023-03-25T01:49:29.915Z,9.50
2023-03-25T01:52:05.310Z,9.50
2023-03-25T01:54:32.613Z,9.50
2023-03-25T01:56:59.431Z,9.40
2023-03-25T01:59:28.132Z,9.30
2023-03-25T02:02:00.261Z,9.30
2023-03-25T02:06:58.374Z,9.20
2023-03-25T02:09:26.349Z,9.10
2023-03-25T02:11:54.947Z,9.10
2023-03-25T02:14:25.154Z,9.20
2023-03-25T02:16:55.942Z,9.10
2023-03-25T02:20:08.976Z,9.10
2023-03-25T02:22:59.935Z,9.20
2023-03-25T02:26:00.107Z,9.30
2023-03-25T02:28:42.478Z,9.20
2023-03-25T02:31:15.953Z,9.20
2023-03-25T02:33:58.560Z,9.30
2023-03-25T02:48:20.896Z,9.30
2023-03-25T02:50:55.382Z,9.20
2023-03-25T02:55:52.589Z,9.10
2023-03-25T02:58:21.384Z,9.30
2023-03-25T03:00:49.388Z,9.20
2023-03-25T03:03:16.198Z,9.30
2023-03-25T03:05:49.650Z,9.40
2023-03-25T03:08:41.412Z,9.50
2023-03-25T03:11:16.761Z,9.60
2023-03-25T03:14:21.217Z,9.50
2023-03-25T03:17:18.397Z,9.60
2023-03-25T03:19:58.376Z,9.50
2023-03-25T03:22:56.002Z,9.60
2023-03-25T03:25:41.125Z,9.60
2023-03-25T03:28:19.833Z,9.60
2023-03-25T03:30:54.335Z,9.60
2023-03-25T03:36:07.063Z,9.60
2023-03-25T03:38:39.356Z,9.60
2023-03-25T03:41:09.664Z,9.60
2023-03-25T03:43:49.033Z,9.60
2023-03-25T03:46:23.770Z,9.70
2023-03-25T03:48:56.641Z,9.60
2023-03-25T03:51:29.840Z,9.50
2023-03-25T03:54:06.415Z,9.50
2023-03-25T03:56:37.791Z,9.50
2023-03-25T03:59:27.337Z,9.40
2023-03-25T04:02:00.010Z,9.30
2023-03-25T04:04:27.004Z,9.40
2023-03-25T04:07:15.231Z,9.30
2023-03-25T04:10:02.601Z,9.30
2023-03-25T04:12:35.572Z,9.30
2023-03-25T04:23:21.981Z,9.30
2023-03-25T04:28:32.430Z,9.30
2023-03-25T04:31:00.458Z,9.30
2023-03-25T04:33:32.277Z,9.30
2023-03-25T04:38:34.658Z,9.30
2023-03-25T04:41:01.336Z,9.30
2023-03-25T04:43:28.407Z,9.30
2023-03-25T04:45:55.469Z,9.30
2023-03-25T04:48:30.058Z,9.30
2023-03-25T04:59:04.277Z,9.30
2023-03-25T05:01:31.145Z,9.30
2023-03-25T05:04:05.073Z,9.30
2023-03-25T05:06:35.798Z,9.20
2023-03-25T05:17:06.504Z,9.10
2023-03-25T05:19:35.150Z,9.10
2023-03-25T05:22:04.540Z,9.10
2023-03-25T05:24:31.286Z,9.10
2023-03-25T05:29:34.011Z,9.00
2023-03-25T05:32:01.031Z,9.00
2023-03-25T05:34:29.866Z,9.10
2023-03-25T05:36:56.764Z,9.10
2023-03-25T05:39:24.526Z,9.10
2023-03-25T05:47:33.699Z,9.20
2023-03-25T05:50:00.331Z,9.10
2023-03-25T05:52:27.403Z,9.00
2023-03-25T05:54:55.693Z,9.00
2023-03-25T05:57:28.731Z,9.00
2023-03-25T06:02:25.793Z,9.10
2023-03-25T06:04:52.575Z,9.10
2023-03-25T06:07:22.235Z,9.20
2023-03-25T06:09:50.067Z,9.30
2023-03-25T06:12:19.758Z,9.30
2023-03-25T06:14:56.739Z,9.30
2023-03-25T06:17:23.379Z,9.30
2023-03-25T06:19:51.248Z,9.30
2023-03-25T06:22:21.940Z,9.30
2023-03-25T06:24:48.757Z,9.40
2023-03-25T06:27:17.726Z,9.50
2023-03-25T06:29:44.824Z,9.50
2023-03-25T06:32:13.204Z,9.50
2023-03-25T06:34:42.413Z,9.60
2023-03-25T06:37:09.824Z,9.60
2023-03-25T06:39:37.772Z,9.70
2023-03-25T06:44:35.866Z,9.90
2023-03-25T06:47:04.425Z,9.90
2023-03-25T06:51:58.368Z,9.90
2023-03-25T06:54:25.265Z,9.90
2023-03-25T06:56:51.970Z,9.90
2023-03-25T06:59:18.952Z,10.00
2023-03-25T07:01:45.621Z,10.00
2023-03-25T07:04:12.321Z,10.00
2023-03-25T07:06:39.024Z,10.10
2023-03-25T07:09:05.801Z,10.00
2023-03-25T07:17:08.716Z,9.30
2023-03-25T07:19:35.426Z,9.20
2023-03-25T07:22:02.033Z,9.00
2023-03-25T07:24:28.677Z,9.00
2023-03-25T07:26:55.257Z,9.00
2023-03-25T07:32:06.318Z,9.30
2023-03-25T07:34:32.911Z,9.50
2023-03-25T07:36:59.526Z,9.70
2023-03-25T07:39:26.181Z,10.00
2023-03-25T07:41:53.306Z,10.10
2023-03-25T07:49:35.425Z,9.80
2023-03-25T07:52:02.017Z,9.40
2023-03-25T07:54:28.699Z,9.00
2023-03-25T07:56:55.542Z,8.60
2023-03-25T08:02:04.891Z,8.60
2023-03-25T08:04:32.050Z,8.50
2023-03-25T08:06:58.632Z,8.40
2023-03-25T08:09:25.318Z,8.40
2023-03-25T08:11:51.970Z,8.40
2023-03-25T08:16:55.179Z,8.50
2023-03-25T08:19:21.840Z,8.70
2023-03-25T08:21:48.387Z,8.90
2023-03-25T08:24:15.381Z,9.00
2023-03-25T08:26:42.583Z,9.10
2023-03-25T08:32:00.830Z,9.10
2023-03-25T08:34:29.016Z,9.20
2023-03-25T11:07:30.241Z,14.10
2023-03-25T11:48:15.640Z,14.30
2023-03-25T12:17:04.419Z,13.30
2023-03-25T12:25:35.989Z,12.10
2023-03-25T12:47:41.749Z,13.70
2023-03-25T13:52:21.031Z,15.80
2023-03-25T14:24:11.287Z,11.80
2023-03-25T14:26:44.307Z,10.80
2023-03-25T14:29:21.766Z,10.80
2023-03-25T14:32:03.747Z,10.90
2023-03-25T14:34:30.742Z,11.10
2023-03-25T15:28:45.135Z,11.70
2023-03-25T15:31:23.312Z,14.80
2023-03-25T15:42:17.460Z,17.70
2023-03-25T15:45:13.047Z,18.30
2023-03-25T15:48:07.680Z,18.00
2023-03-25T15:50:52.813Z,16.10
2023-03-25T15:53:41.845Z,15.20
2023-03-25T15:56:14.910Z,14.70
2023-03-25T15:58:58.374Z,14.50
2023-03-25T16:01:30.211Z,14.60
2023-03-25T16:30:23.718Z,13.80
2023-03-25T16:32:57.738Z,13.70
2023-03-25T16:35:29.453Z,13.70
2023-03-25T16:40:32.269Z,13.80
2023-03-25T16:43:06.742Z,13.90
2023-03-25T16:48:09.650Z,14.70
2023-03-25T16:50:36.901Z,15.60
2023-03-25T16:53:05.322Z,15.50
2023-03-25T16:56:02.988Z,15.00
2023-03-25T17:01:10.774Z,13.80
